createdAt,value
2018-03-28T00:01:23.572Z,59.08
2018-03-28T00:03:51.196Z,59.17
2018-03-28T00:06:18.796Z,59.15
2018-03-28T00:08:46.428Z,59.14
2018-03-28T00:11:14.032Z,59.28
2018-03-28T00:13:41.656Z,59.42
2018-03-28T00:16:09.345Z,59.56
2018-03-28T00:18:37.108Z,59.72
2018-03-28T00:21:04.708Z,59.85
2018-03-28T00:23:32.313Z,59.96
2018-03-28T00:25:59.940Z,60.15
2018-03-28T00:28:27.546Z,60.39
2018-03-28T00:30:55.172Z,60.54
2018-03-28T00:33:22.780Z,60.72
2018-03-28T00:35:50.440Z,60.86
2018-03-28T00:38:18.041Z,60.96
2018-03-28T00:40:45.800Z,61.15
2018-03-28T00:43:13.434Z,61.20
2018-03-28T00:45:41.064Z,61.19
2018-03-28T00:48:08.756Z,61.19
2018-03-28T00:50:36.384Z,61.21
2018-03-28T00:53:04.081Z,61.41
2018-03-28T00:55:31.749Z,61.48
2018-03-28T00:57:59.372Z,61.52
2018-03-28T01:00:26.972Z,61.54
2018-03-28T01:02:55.347Z,61.61
2018-03-28T01:05:23.008Z,61.72
2018-03-28T01:07:50.635Z,61.79
2018-03-28T01:10:18.232Z,61.88
2018-03-28T01:12:45.891Z,61.97
2018-03-28T01:15:13.562Z,62.03
2018-03-28T01:17:41.220Z,61.94
2018-03-28T01:20:08.890Z,62.04
2018-03-28T01:22:36.544Z,62.09
2018-03-28T01:25:04.145Z,62.13
2018-03-28T01:27:31.767Z,62.26
2018-03-28T01:29:59.433Z,62.18
2018-03-28T01:32:27.048Z,62.25
2018-03-28T01:34:54.679Z,62.23
2018-03-28T01:37:22.284Z,62.20
2018-03-28T01:39:49.984Z,62.20
2018-03-28T01:42:17.585Z,62.13
2018-03-28T01:44:45.204Z,62.11
2018-03-28T01:47:12.884Z,62.07
2018-03-28T01:49:40.507Z,62.06
2018-03-28T01:52:08.115Z,61.99
2018-03-28T01:54:35.742Z,62.07
2018-03-28T01:57:03.413Z,62.09
2018-03-28T01:59:31.041Z,62.35
2018-03-28T02:01:58.657Z,61.96
2018-03-28T02:04:26.291Z,61.74
2018-03-28T02:06:53.915Z,61.69
2018-03-28T02:09:21.548Z,61.83
2018-03-28T02:11:49.192Z,61.70
2018-03-28T02:14:16.820Z,61.78
2018-03-28T02:16:44.508Z,61.87
2018-03-28T02:19:12.144Z,61.88
2018-03-28T02:21:39.841Z,62.12
2018-03-28T02:24:07.465Z,62.17
2018-03-28T02:26:35.073Z,62.53
2018-03-28T02:29:02.729Z,62.35
2018-03-28T02:31:30.345Z,62.37
2018-03-28T02:33:57.980Z,62.45
2018-03-28T02:36:25.585Z,62.53
2018-03-28T02:38:53.222Z,62.44
2018-03-28T02:41:20.829Z,62.39
2018-03-28T02:43:48.490Z,62.44
2018-03-28T02:46:16.099Z,62.48
2018-03-28T02:48:43.715Z,62.29
2018-03-28T02:51:11.365Z,62.31
2018-03-28T02:53:38.967Z,62.30
2018-03-28T02:56:06.710Z,62.40
2018-03-28T02:58:34.321Z,62.44
2018-03-28T03:01:01.958Z,62.48
2018-03-28T03:03:29.569Z,62.51
2018-03-28T03:05:57.207Z,62.57
2018-03-28T03:08:24.922Z,62.55
2018-03-28T03:10:52.548Z,62.81
2018-03-28T03:13:20.153Z,62.90
2018-03-28T03:15:47.809Z,62.96
2018-03-28T03:18:15.465Z,63.03
2018-03-28T03:20:43.076Z,63.11
2018-03-28T03:23:10.704Z,63.16
2018-03-28T03:25:38.313Z,63.29
2018-03-28T03:28:05.944Z,63.27
2018-03-28T03:30:33.557Z,63.18
2018-03-28T03:33:01.181Z,63.34
2018-03-28T03:35:28.797Z,63.39
2018-03-28T03:37:56.461Z,63.56
2018-03-28T03:40:24.069Z,64.04
2018-03-28T03:42:51.787Z,63.90
2018-03-28T03:45:19.395Z,64.07
2018-03-28T03:47:47.029Z,64.24
2018-03-28T03:50:14.637Z,64.19
2018-03-28T03:52:42.288Z,64.37
2018-03-28T03:55:09.925Z,64.47
2018-03-28T03:57:37.541Z,64.88
2018-03-28T04:00:05.181Z,64.86
2018-03-28T04:02:32.792Z,64.91
2018-03-28T04:05:00.444Z,65.13
2018-03-28T04:07:28.058Z,65.35
2018-03-28T04:09:55.689Z,65.42
2018-03-28T04:12:23.388Z,65.94
2018-03-28T04:14:51.037Z,65.71
2018-03-28T04:17:18.651Z,65.52
2018-03-28T04:19:46.266Z,65.57
2018-03-28T04:22:13.905Z,65.49
2018-03-28T04:24:41.517Z,65.57
2018-03-28T04:27:09.209Z,65.63
2018-03-28T04:29:36.877Z,65.73
2018-03-28T04:32:04.518Z,65.87
2018-03-28T04:34:32.125Z,65.91
2018-03-28T04:36:59.852Z,66.02
2018-03-28T04:39:27.533Z,66.13
2018-03-28T04:41:55.165Z,66.16
2018-03-28T04:44:22.777Z,66.20
2018-03-28T04:46:50.392Z,66.28
2018-03-28T04:49:18.068Z,66.52
2018-03-28T04:51:45.734Z,66.54
2018-03-28T04:54:13.409Z,66.61
2018-03-28T04:56:41.061Z,66.61
2018-03-28T04:59:08.721Z,66.70
2018-03-28T05:01:36.385Z,66.77
2018-03-28T05:04:04.032Z,66.77
2018-03-28T05:06:31.656Z,66.85
2018-03-28T05:08:59.293Z,66.91
2018-03-28T05:11:26.932Z,66.86
2018-03-28T05:13:54.580Z,66.86
2018-03-28T05:16:22.203Z,66.80
2018-03-28T05:18:49.816Z,66.76
2018-03-28T05:21:17.481Z,66.78
2018-03-28T05:23:45.096Z,66.73
2018-03-28T05:26:12.729Z,66.69
2018-03-28T05:28:40.345Z,66.80
2018-03-28T05:31:07.984Z,66.85
2018-03-28T05:33:35.601Z,66.91
2018-03-28T05:36:03.253Z,67.01
2018-03-28T05:38:30.869Z,66.92
2018-03-28T05:40:58.509Z,67.20
2018-03-28T05:43:26.145Z,67.35
2018-03-28T05:45:53.801Z,67.36
2018-03-28T05:48:21.464Z,67.46
2018-03-28T05:50:49.096Z,67.59
2018-03-28T05:53:16.781Z,67.67
2018-03-28T05:55:44.452Z,67.67
2018-03-28T05:58:12.060Z,67.77
2018-03-28T06:00:39.693Z,67.85
2018-03-28T06:03:07.329Z,67.97
2018-03-28T06:05:34.969Z,68.13
2018-03-28T06:08:02.596Z,68.19
2018-03-28T06:10:30.328Z,68.14
2018-03-28T06:12:58.025Z,68.12
2018-03-28T06:15:25.657Z,68.12
2018-03-28T06:17:53.316Z,68.17
2018-03-28T06:20:21.072Z,68.26
2018-03-28T06:22:48.685Z,68.24
2018-03-28T06:25:16.320Z,68.15
2018-03-28T06:27:43.932Z,68.11
2018-03-28T06:30:11.565Z,68.17
2018-03-28T06:32:39.181Z,68.03
2018-03-28T06:35:06.816Z,67.89
2018-03-28T06:37:34.506Z,67.75
2018-03-28T06:40:02.150Z,67.67
2018-03-28T06:42:31.263Z,67.64
2018-03-28T06:44:58.905Z,67.57
2018-03-28T06:47:26.529Z,67.56
2018-03-28T06:49:54.141Z,67.57
2018-03-28T06:52:21.780Z,67.53
2018-03-28T06:54:49.484Z,67.46
2018-03-28T06:57:17.125Z,67.46
2018-03-28T06:59:44.750Z,67.38
2018-03-28T07:02:12.405Z,67.12
2018-03-28T07:04:40.016Z,66.91
2018-03-28T07:07:07.648Z,66.91
2018-03-28T07:09:35.261Z,66.68
2018-03-28T07:12:02.916Z,66.50
2018-03-28T07:14:30.533Z,66.37
2018-03-28T07:16:58.172Z,66.17
2018-03-28T07:19:25.788Z,66.07
2018-03-28T07:21:53.469Z,66.09
2018-03-28T07:24:21.076Z,65.73
2018-03-28T07:26:48.793Z,65.52
2018-03-28T07:29:16.457Z,65.60
2018-03-28T07:31:44.116Z,65.33
2018-03-28T07:34:11.741Z,65.30
2018-03-28T07:36:39.539Z,64.98
2018-03-28T07:39:07.152Z,64.92
2018-03-28T07:41:34.794Z,64.89
2018-03-28T07:44:02.488Z,64.67
2018-03-28T07:46:30.293Z,64.74
2018-03-28T07:48:57.904Z,64.61
2018-03-28T07:51:25.540Z,64.66
2018-03-28T07:53:53.153Z,64.73
2018-03-28T07:56:20.849Z,64.73
2018-03-28T07:58:48.465Z,64.84
2018-03-28T08:01:16.110Z,64.76
2018-03-28T08:03:43.837Z,64.72
2018-03-28T08:06:11.468Z,64.63
2018-03-28T08:08:39.077Z,64.56
2018-03-28T08:11:06.710Z,64.66
2018-03-28T08:13:34.325Z,64.75
2018-03-28T08:16:01.974Z,64.93
2018-03-28T08:18:29.593Z,64.95
2018-03-28T08:20:57.226Z,65.07
2018-03-28T08:23:24.932Z,65.10
2018-03-28T08:25:52.588Z,65.21
2018-03-28T08:28:20.260Z,65.54
2018-03-28T08:30:47.876Z,65.65
2018-03-28T08:33:15.521Z,65.49
2018-03-28T08:35:43.247Z,65.29
2018-03-28T08:38:10.898Z,65.29
2018-03-28T08:40:38.573Z,65.14
2018-03-28T08:43:06.236Z,65.14
2018-03-28T08:45:33.994Z,65.15
2018-03-28T08:48:01.672Z,65.08
2018-03-28T08:50:29.285Z,65.02
2018-03-28T08:52:57.065Z,64.93
2018-03-28T08:55:24.686Z,64.69
2018-03-28T08:57:52.329Z,64.53
2018-03-28T09:00:19.938Z,64.41
2018-03-28T09:02:47.572Z,64.39
2018-03-28T09:05:15.192Z,64.62
2018-03-28T09:07:42.865Z,64.78
2018-03-28T09:10:10.480Z,64.55
2018-03-28T09:12:38.129Z,64.42
2018-03-28T09:15:05.749Z,64.53
2018-03-28T09:17:33.389Z,64.62
2018-03-28T09:20:01.072Z,64.38
2018-03-28T09:22:28.712Z,63.90
2018-03-28T09:24:56.334Z,63.67
2018-03-28T09:27:23.972Z,63.58
2018-03-28T09:29:51.584Z,63.51
2018-03-28T09:32:19.216Z,63.70
2018-03-28T09:34:46.829Z,63.59
2018-03-28T09:37:14.469Z,63.01
2018-03-28T09:39:42.176Z,62.54
2018-03-28T09:42:09.816Z,62.38
2018-03-28T09:44:37.509Z,62.24
2018-03-28T09:47:05.269Z,61.68
2018-03-28T09:49:32.888Z,61.82
2018-03-28T09:52:00.541Z,62.17
2018-03-28T09:54:28.248Z,61.94
2018-03-28T09:56:55.885Z,61.57
2018-03-28T09:59:23.500Z,61.63
2018-03-28T10:01:56.852Z,61.51
2018-03-28T10:04:27.279Z,61.91
2018-03-28T10:06:54.932Z,61.99
2018-03-28T10:09:22.624Z,62.06
2018-03-28T10:11:50.288Z,62.06
2018-03-28T10:14:17.927Z,62.17
2018-03-28T10:16:45.889Z,62.27
2018-03-28T10:19:13.528Z,61.76
2018-03-28T10:21:41.246Z,61.66
2018-03-28T10:24:08.880Z,61.91
2018-03-28T10:26:36.492Z,61.95
2018-03-28T10:29:04.237Z,61.76
2018-03-28T10:31:31.882Z,61.76
2018-03-28T10:33:59.560Z,61.94
2018-03-28T10:36:27.177Z,61.29
2018-03-28T10:38:54.816Z,61.29
2018-03-28T10:41:22.444Z,61.60
2018-03-28T10:43:50.097Z,61.79
2018-03-28T10:46:18.009Z,61.61
2018-03-28T10:48:45.649Z,61.76
2018-03-28T10:51:13.305Z,61.93
2018-03-28T10:53:40.976Z,61.62
2018-03-28T10:56:08.623Z,61.60
2018-03-28T10:58:36.383Z,61.46
2018-03-28T11:01:04.008Z,61.53
2018-03-28T11:03:31.716Z,61.33
2018-03-28T11:05:59.333Z,60.95
2018-03-28T11:08:26.974Z,60.87
2018-03-28T11:10:54.590Z,60.22
2018-03-28T11:13:22.232Z,60.06
2018-03-28T11:15:49.853Z,59.62
2018-03-28T11:18:17.501Z,59.58
2018-03-28T11:20:45.114Z,59.41
2018-03-28T11:23:12.748Z,59.32
2018-03-28T11:25:40.361Z,58.99
2018-03-28T11:28:08.001Z,58.35
2018-03-28T11:30:35.700Z,57.90
2018-03-28T11:33:03.340Z,57.91
2018-03-28T11:35:30.957Z,57.91
2018-03-28T11:37:58.604Z,57.42
2018-03-28T11:40:26.249Z,56.96
2018-03-28T11:42:53.886Z,57.12
2018-03-28T11:45:21.567Z,56.96
2018-03-28T11:47:49.227Z,56.56
2018-03-28T11:50:16.845Z,56.19
2018-03-28T11:52:44.564Z,55.90
2018-03-28T11:55:12.203Z,55.66
2018-03-28T11:57:39.821Z,55.62
2018-03-28T12:00:07.456Z,55.86
2018-03-28T12:02:35.073Z,56.31
2018-03-28T12:05:02.724Z,56.54
2018-03-28T12:07:30.437Z,56.47
2018-03-28T12:09:58.072Z,56.45
2018-03-28T12:12:25.689Z,56.45
2018-03-28T12:14:53.417Z,56.48
2018-03-28T12:17:21.084Z,56.48
2018-03-28T12:19:48.728Z,56.22
2018-03-28T12:22:16.340Z,56.44
2018-03-28T12:24:43.977Z,56.86
2018-03-28T12:27:11.637Z,57.02
2018-03-28T12:29:39.301Z,57.25
2018-03-28T12:32:06.960Z,57.35
2018-03-28T12:34:34.630Z,57.04
2018-03-28T12:37:02.298Z,56.51
2018-03-28T12:39:29.920Z,56.28
2018-03-28T12:41:57.545Z,56.68
2018-03-28T12:44:25.185Z,56.68
2018-03-28T12:46:52.832Z,56.24
2018-03-28T12:49:20.485Z,56.13
2018-03-28T12:51:48.196Z,56.01
2018-03-28T12:54:15.892Z,55.71
2018-03-28T12:56:43.509Z,55.58
2018-03-28T12:59:11.186Z,55.42
2018-03-28T13:01:38.803Z,55.68
2018-03-28T13:04:06.444Z,55.68
2018-03-28T13:06:34.069Z,56.07
2018-03-28T13:09:01.800Z,56.22
2018-03-28T13:11:29.465Z,56.01
2018-03-28T13:13:57.229Z,55.55
2018-03-28T13:16:24.893Z,55.59
2018-03-28T13:18:52.533Z,55.80
2018-03-28T13:21:20.221Z,56.14
2018-03-28T13:23:47.880Z,55.78
2018-03-28T13:26:15.526Z,55.81
2018-03-28T13:28:43.206Z,55.72
2018-03-28T13:31:10.844Z,55.93
2018-03-28T13:33:38.461Z,56.05
2018-03-28T13:38:39.025Z,55.75
2018-03-28T13:41:06.742Z,55.93
2018-03-28T13:43:34.357Z,55.66
2018-03-28T13:46:01.969Z,55.28
2018-03-28T13:48:29.612Z,55.58
2018-03-28T13:50:57.226Z,55.66
2018-03-28T13:53:24.952Z,55.56
2018-03-28T13:55:52.616Z,55.34
2018-03-28T13:58:20.256Z,55.53
2018-03-28T14:00:47.870Z,55.96
2018-03-28T14:03:15.504Z,55.87
2018-03-28T14:05:43.209Z,55.49
2018-03-28T14:08:10.828Z,55.40
2018-03-28T14:10:38.451Z,55.38
2018-03-28T14:13:06.084Z,55.18
2018-03-28T14:15:33.693Z,54.80
2018-03-28T14:18:01.378Z,54.79
2018-03-28T14:20:29.041Z,55.08
2018-03-28T14:22:56.648Z,55.14
2018-03-28T14:25:24.285Z,55.30
2018-03-28T14:27:51.896Z,55.36
2018-03-28T14:30:19.593Z,55.46
2018-03-28T14:32:47.253Z,55.79
2018-03-28T14:35:14.890Z,55.94
2018-03-28T14:37:42.532Z,56.06
2018-03-28T14:40:10.160Z,55.74
2018-03-28T14:42:37.776Z,55.64
2018-03-28T14:45:05.413Z,55.63
2018-03-28T14:47:33.033Z,55.54
2018-03-28T14:50:00.653Z,55.65
2018-03-28T14:52:28.349Z,55.69
2018-03-28T14:54:56.013Z,55.51
2018-03-28T14:57:23.640Z,55.67
2018-03-28T14:59:51.256Z,55.29
2018-03-28T15:02:18.897Z,55.12
2018-03-28T15:04:46.511Z,55.37
2018-03-28T15:07:14.152Z,55.49
2018-03-28T15:09:41.761Z,55.37
2018-03-28T15:12:09.396Z,55.23
2018-03-28T15:14:37.088Z,55.04
2018-03-28T15:17:04.721Z,54.89
2018-03-28T15:19:32.432Z,54.89
2018-03-28T15:22:00.068Z,54.91
2018-03-28T15:24:27.685Z,55.06
2018-03-28T15:26:55.296Z,54.72
2018-03-28T15:29:22.933Z,54.89
2018-03-28T15:31:50.545Z,55.05
2018-03-28T15:34:18.181Z,55.22
2018-03-28T15:36:45.796Z,55.13
2018-03-28T15:39:13.623Z,55.44
2018-03-28T15:41:41.233Z,55.52
2018-03-28T15:44:08.868Z,55.79
2018-03-28T15:46:36.523Z,55.84
2018-03-28T15:49:04.285Z,55.46
2018-03-28T15:51:31.905Z,55.64
2018-03-28T15:53:59.524Z,55.84
2018-03-28T15:56:27.273Z,56.04
2018-03-28T15:58:54.933Z,56.19
2018-03-28T16:01:22.690Z,56.19
2018-03-28T16:03:50.356Z,56.35
2018-03-28T16:06:18.025Z,56.73
2018-03-28T16:08:45.653Z,56.90
2018-03-28T16:11:13.297Z,57.04
2018-03-28T16:13:40.912Z,57.43
2018-03-28T16:16:08.543Z,57.89
2018-03-28T16:18:36.233Z,58.18
2018-03-28T16:21:03.868Z,58.58
2018-03-28T16:23:31.481Z,58.57
2018-03-28T16:25:59.121Z,58.61
2018-03-28T16:28:26.741Z,58.76
2018-03-28T16:30:54.376Z,58.97
2018-03-28T16:33:21.989Z,59.11
2018-03-28T16:35:49.601Z,59.32
2018-03-28T16:38:17.336Z,59.66
2018-03-28T16:40:44.993Z,59.83
2018-03-28T16:43:12.633Z,60.03
2018-03-28T16:45:40.320Z,60.28
2018-03-28T16:48:07.977Z,60.59
2018-03-28T16:50:35.590Z,60.79
2018-03-28T16:53:03.233Z,61.00
2018-03-28T16:55:30.845Z,61.03
2018-03-28T16:57:58.533Z,61.15
2018-03-28T17:00:26.197Z,61.08
2018-03-28T17:02:53.865Z,61.36
2018-03-28T17:05:21.477Z,61.53
2018-03-28T17:07:49.300Z,61.61
2018-03-28T17:10:16.850Z,61.75
2018-03-28T17:12:44.465Z,61.79
2018-03-28T17:15:12.173Z,61.79
2018-03-28T17:17:39.834Z,61.81
2018-03-28T17:20:07.468Z,61.97
2018-03-28T17:22:35.081Z,62.03
2018-03-28T17:25:02.820Z,61.88
2018-03-28T17:27:30.457Z,61.71
2018-03-28T17:29:58.112Z,61.83
2018-03-28T17:32:25.737Z,61.82
2018-03-28T17:34:53.378Z,61.92
2018-03-28T17:37:21.037Z,62.00
2018-03-28T17:39:48.665Z,62.01
2018-03-28T17:42:16.300Z,62.00
2018-03-28T17:44:43.922Z,61.99
2018-03-28T17:47:11.581Z,62.04
2018-03-28T17:49:39.244Z,62.09
2018-03-28T17:52:06.877Z,62.14
2018-03-28T17:54:34.496Z,62.09
2018-03-28T17:57:02.235Z,62.19
2018-03-28T17:59:29.898Z,62.33
2018-03-28T18:01:57.536Z,62.40
2018-03-28T18:04:25.228Z,62.66
2018-03-28T18:06:52.985Z,62.54
2018-03-28T18:09:20.609Z,62.57
2018-03-28T18:11:48.221Z,62.65
2018-03-28T18:14:15.865Z,62.72
2018-03-28T18:16:43.481Z,62.78
2018-03-28T18:19:11.197Z,62.75
2018-03-28T18:21:38.864Z,62.85
2018-03-28T18:24:06.505Z,62.71
2018-03-28T18:26:34.118Z,62.66
2018-03-28T18:29:01.756Z,62.66
2018-03-28T18:31:29.412Z,62.44
2018-03-28T18:33:57.049Z,62.36
2018-03-28T18:36:24.736Z,62.51
2018-03-28T18:38:52.376Z,62.72
2018-03-28T18:41:19.989Z,62.73
2018-03-28T18:43:47.621Z,62.81
2018-03-28T18:46:15.248Z,62.96
2018-03-28T18:48:42.868Z,63.07
2018-03-28T18:51:10.508Z,63.12
2018-03-28T18:53:38.120Z,63.33
2018-03-28T18:56:05.832Z,63.60
2018-03-28T18:58:33.449Z,63.97
2018-03-28T19:01:01.085Z,64.88
2018-03-28T19:03:28.811Z,65.81
2018-03-28T19:05:56.485Z,66.28
2018-03-28T19:08:24.097Z,66.46
2018-03-28T19:10:51.804Z,67.16
2018-03-28T19:13:19.417Z,67.59
2018-03-28T19:15:47.133Z,67.84
2018-03-28T19:18:14.797Z,68.36
2018-03-28T19:20:42.446Z,68.59
2018-03-28T19:23:10.058Z,68.76
2018-03-28T19:25:37.673Z,69.07
2018-03-28T19:28:05.307Z,69.29
2018-03-28T19:30:33.004Z,69.46
2018-03-28T19:33:00.669Z,69.41
2018-03-28T19:35:28.337Z,69.45
2018-03-28T19:37:55.981Z,69.45
2018-03-28T19:40:23.662Z,69.28
2018-03-28T19:42:51.320Z,69.18
2018-03-28T19:45:18.988Z,69.24
2018-03-28T19:47:46.636Z,69.25
2018-03-28T19:50:14.249Z,69.35
2018-03-28T19:52:41.889Z,69.24
2018-03-28T19:55:09.500Z,69.05
2018-03-28T19:57:37.200Z,69.28
2018-03-28T20:00:04.809Z,69.21
2018-03-28T20:02:32.425Z,69.29
2018-03-28T20:05:00.060Z,69.30
2018-03-28T20:07:27.676Z,69.33
2018-03-28T20:09:55.309Z,69.66
2018-03-28T20:12:22.944Z,69.73
2018-03-28T20:14:50.581Z,70.06
2018-03-28T20:17:18.192Z,70.39
2018-03-28T20:19:45.852Z,70.77
2018-03-28T20:22:13.517Z,71.14
2018-03-28T20:24:41.180Z,71.58
2018-03-28T20:27:08.788Z,72.04
2018-03-28T20:29:36.424Z,72.45
2018-03-28T20:32:04.069Z,72.83
2018-03-28T20:34:31.829Z,72.90
2018-03-28T20:36:59.445Z,73.12
2018-03-28T20:39:27.153Z,73.44
2018-03-28T20:41:54.774Z,73.90
2018-03-28T20:44:22.416Z,74.25
2018-03-28T20:46:50.053Z,74.70
2018-03-28T20:49:17.713Z,74.80
2018-03-28T20:51:45.353Z,75.20
2018-03-28T20:54:13.038Z,75.25
2018-03-28T20:56:40.682Z,75.52
2018-03-28T20:59:08.357Z,75.82
2018-03-28T21:01:36.018Z,75.82
2018-03-28T21:04:03.633Z,76.33
2018-03-28T21:06:31.341Z,76.68
2018-03-28T21:08:59.012Z,77.02
2018-03-28T21:11:26.644Z,77.32
2018-03-28T21:13:54.260Z,77.51
2018-03-28T21:16:21.905Z,77.66
2018-03-28T21:18:49.520Z,77.71
2018-03-28T21:21:17.216Z,77.76
2018-03-28T21:23:44.880Z,78.14
2018-03-28T21:26:12.492Z,78.24
2018-03-28T21:28:40.128Z,78.53
2018-03-28T21:31:07.745Z,78.59
2018-03-28T21:33:35.389Z,78.89
2018-03-28T21:36:03.001Z,78.91
2018-03-28T21:38:30.676Z,79.08
2018-03-28T21:40:58.293Z,79.18
2018-03-28T21:43:25.976Z,79.30
2018-03-28T21:45:53.594Z,79.49
2018-03-28T21:48:21.237Z,79.42
2018-03-28T21:50:48.868Z,79.30
2018-03-28T21:53:16.526Z,79.39
2018-03-28T21:55:44.148Z,79.76
2018-03-28T21:58:11.776Z,79.80
2018-03-28T22:00:39.516Z,79.93
2018-03-28T22:03:07.181Z,79.98
2018-03-28T22:05:34.840Z,80.13
2018-03-28T22:08:02.510Z,80.21
2018-03-28T22:10:30.144Z,80.12
2018-03-28T22:12:57.764Z,80.23
2018-03-28T22:15:25.412Z,80.39
2018-03-28T22:17:53.025Z,80.45
2018-03-28T22:20:20.675Z,80.46
2018-03-28T22:22:48.285Z,80.57
2018-03-28T22:25:16.038Z,80.24
2018-03-28T22:27:43.705Z,80.46
2018-03-28T22:30:11.312Z,80.70
2018-03-28T22:32:39.029Z,80.72
2018-03-28T22:35:06.645Z,80.80
2018-03-28T22:37:34.281Z,80.89
2018-03-28T22:40:01.892Z,80.90
2018-03-28T22:42:29.576Z,80.99
2018-03-28T22:44:57.205Z,80.98
2018-03-28T22:47:24.841Z,80.87
2018-03-28T22:49:52.453Z,81.25
2018-03-28T22:52:20.115Z,81.37
2018-03-28T22:54:47.781Z,81.45
2018-03-28T22:57:15.553Z,81.55
2018-03-28T22:59:43.169Z,81.57
2018-03-28T23:02:10.782Z,81.66
2018-03-28T23:04:38.416Z,81.53
2018-03-28T23:07:06.020Z,81.63
2018-03-28T23:09:33.653Z,81.90
2018-03-28T23:12:01.320Z,81.88
2018-03-28T23:14:28.952Z,81.99
2018-03-28T23:16:56.653Z,82.19
2018-03-28T23:19:24.313Z,82.10
2018-03-28T23:21:51.981Z,82.24
2018-03-28T23:24:19.612Z,82.15
2018-03-28T23:26:47.229Z,82.10
2018-03-28T23:29:14.962Z,82.10
2018-03-28T23:31:42.573Z,82.21
2018-03-28T23:34:10.184Z,82.21
2018-03-28T23:36:37.821Z,82.18
2018-03-28T23:39:05.433Z,82.23
2018-03-28T23:41:33.169Z,82.27
2018-03-28T23:44:00.833Z,81.99
2018-03-28T23:46:28.469Z,82.27
2018-03-28T23:48:56.082Z,82.28
2018-03-28T23:51:23.718Z,82.28
2018-03-28T23:53:51.325Z,82.45
2018-03-28T23:56:18.957Z,82.47
2018-03-28T23:58:46.564Z,82.54
